Time;durP1;ratioP1;P1;durP2;ratioP2;P2;SDS_P1;SDS_P2;PMS_P1;PMS_P2;Temp;Humidity;BMP_temperature;BMP_pressure;BME280_temperature;BME280_humidity;BME280_pressure;Samples;Min_cycle;Max_cycle;Signal;HPM_P1;HPM_P2
2023/05/19 00:01:47;;;;;;;15.88;8.77;;;8.00;99.90;;;;;;5101605;28;20039;-77
2023/05/19 00:04:14;;;;;;;12.93;7.60;;;8.00;99.90;;;;;;5069281;28;20032;-77
2023/05/19 00:06:40;;;;;;;14.52;8.32;;;8.00;99.90;;;;;;5083970;28;20108;-77
2023/05/19 00:09:10;;;;;;;12.88;8.00;;;8.00;99.90;;;;;;5070212;28;20457;-77
2023/05/19 00:11:39;;;;;;;15.27;8.30;;;8.00;99.90;;;;;;5081755;28;20044;-77
2023/05/19 00:14:08;;;;;;;14.88;9.05;;;8.00;99.90;;;;;;5083498;28;20035;-77
2023/05/19 00:16:35;;;;;;;14.35;9.02;;;7.90;99.90;;;;;;5079537;28;20051;-77
2023/05/19 00:19:02;;;;;;;15.35;9.05;;;7.90;99.90;;;;;;5085576;28;20047;-77
2023/05/19 00:21:30;;;;;;;15.15;8.60;;;7.90;99.90;;;;;;5079423;28;20043;-77
2023/05/19 00:23:56;;;;;;;15.60;9.50;;;7.90;99.90;;;;;;5118872;27;20691;-77
2023/05/19 00:26:22;;;;;;;16.67;9.55;;;7.80;99.90;;;;;;5096605;28;20715;-77
2023/05/19 00:28:49;;;;;;;20.25;10.57;;;7.80;99.90;;;;;;5082082;28;20707;-77
2023/05/19 00:31:15;;;;;;;17.27;9.88;;;7.80;99.90;;;;;;5099838;28;20047;-77
2023/05/19 00:33:41;;;;;;;12.95;8.65;;;7.80;99.90;;;;;;5072414;28;20044;-77
2023/05/19 00:36:07;;;;;;;16.42;9.70;;;7.80;99.90;;;;;;5083307;28;20085;-77
2023/05/19 00:38:35;;;;;;;14.48;9.35;;;7.80;99.90;;;;;;5083602;28;20047;-77
2023/05/19 00:41:02;;;;;;;20.73;10.82;;;7.80;99.90;;;;;;5080416;28;20043;-77
2023/05/19 00:43:33;;;;;;;14.43;9.80;;;7.80;99.90;;;;;;5067663;28;20091;-77
2023/05/19 00:45:59;;;;;;;16.17;10.35;;;7.80;99.90;;;;;;5093576;28;20109;-77
2023/05/19 00:48:25;;;;;;;16.85;10.13;;;7.80;99.90;;;;;;5092403;28;20048;-76
2023/05/19 00:50:53;;;;;;;16.55;9.65;;;7.80;99.90;;;;;;5081219;28;20035;-77
2023/05/19 00:53:20;;;;;;;17.42;10.25;;;7.70;99.90;;;;;;5080495;28;20039;-77
2023/05/19 00:55:46;;;;;;;15.73;10.13;;;7.70;99.90;;;;;;5096718;28;20040;-77
2023/05/19 00:58:13;;;;;;;16.55;10.32;;;7.70;99.90;;;;;;5100148;27;20039;-76
2023/05/19 01:00:39;;;;;;;15.27;10.35;;;7.70;99.90;;;;;;5082343;28;20492;-77
2023/05/19 01:03:11;;;;;;;16.63;10.35;;;7.70;99.90;;;;;;5081343;28;20123;-77
2023/05/19 01:05:43;;;;;;;18.38;11.13;;;7.70;99.90;;;;;;5069552;28;20044;-77
2023/05/19 01:08:09;;;;;;;20.67;11.32;;;7.70;99.90;;;;;;5064646;28;20040;-77
2023/05/19 01:10:35;;;;;;;16.10;10.48;;;7.70;99.90;;;;;;5082914;28;20419;-77
2023/05/19 01:13:03;;;;;;;17.17;10.80;;;7.70;99.90;;;;;;5097470;28;20043;-76
2023/05/19 01:15:32;;;;;;;17.52;9.85;;;7.70;99.90;;;;;;5099795;28;20038;-77
2023/05/19 01:18:06;;;;;;;16.38;10.32;;;7.70;99.90;;;;;;5116777;27;20051;-77
2023/05/19 01:20:37;;;;;;;17.20;10.15;;;7.60;99.90;;;;;;5084053;28;20047;-77
2023/05/19 01:23:03;;;;;;;;;;;7.60;99.90;;;;;;5085224;28;20044;-77
2023/05/19 01:25:46;;;;;;;20.33;10.85;;;7.60;99.90;;;;;;5103725;27;19919;-77
2023/05/19 01:28:24;;;;;;;21.52;12.80;;;7.60;99.90;;;;;;5092238;28;20075;-77
2023/05/19 01:30:58;;;;;;;22.50;12.48;;;7.60;99.90;;;;;;5102787;28;20051;-77
2023/05/19 01:33:27;;;;;;;18.77;11.65;;;7.60;99.90;;;;;;5080244;28;20062;-76
2023/05/19 01:35:55;;;;;;;18.20;11.32;;;7.60;99.90;;;;;;5083947;28;20044;-77
2023/05/19 01:38:24;;;;;;;16.60;10.70;;;7.60;99.90;;;;;;5095675;28;20036;-77
2023/05/19 01:40:51;;;;;;;16.70;11.63;;;7.60;99.90;;;;;;5087309;28;20040;-77
2023/05/19 01:43:20;;;;;;;17.08;10.80;;;7.60;99.90;;;;;;5069370;28;20039;-77
2023/05/19 01:45:46;;;;;;;17.60;10.40;;;7.50;99.90;;;;;;5115550;27;20111;-77
2023/05/19 01:48:12;;;;;;;20.10;11.38;;;7.40;99.90;;;;;;5083603;28;20437;-77
2023/05/19 01:50:39;;;;;;;17.40;11.95;;;7.50;99.90;;;;;;5069649;28;20043;-77
2023/05/19 01:53:05;;;;;;;17.90;11.52;;;7.50;99.90;;;;;;5081325;28;20059;-77
2023/05/19 01:55:31;;;;;;;20.58;12.48;;;7.50;99.90;;;;;;5083070;28;20042;-77
2023/05/19 01:58:33;;;;;;;22.13;12.50;;;7.40;99.90;;;;;;5098438;28;20039;-77
2023/05/19 02:01:23;;;;;;;18.63;11.60;;;7.40;99.90;;;;;;5080586;28;20508;-77
2023/05/19 02:04:14;;;;;;;18.45;11.45;;;7.40;99.90;;;;;;5081734;28;20500;-77
2023/05/19 02:06:56;;;;;;;18.30;12.07;;;7.40;99.90;;;;;;5081601;28;20055;-77
2023/05/19 02:09:32;;;;;;;18.60;12.38;;;7.30;99.90;;;;;;5072789;28;20549;-77
2023/05/19 02:12:18;;;;;;;20.15;13.20;;;7.30;99.90;;;;;;5083939;28;20074;-77
2023/05/19 02:15:03;;;;;;;20.23;13.40;;;7.30;99.90;;;;;;5087399;28;20104;-77
2023/05/19 02:17:32;;;;;;;21.90;12.88;;;7.20;99.90;;;;;;5117602;27;20039;-77
2023/05/19 02:19:58;;;;;;;22.73;13.70;;;7.20;99.90;;;;;;5088540;28;20046;-77
2023/05/19 02:22:24;;;;;;;22.25;13.55;;;7.20;99.90;;;;;;5094608;28;20044;-77
2023/05/19 02:24:55;;;;;;;15.40;12.70;;;7.20;99.90;;;;;;5073845;28;20051;-78
2023/05/19 02:27:25;;;;;;;21.85;12.70;;;7.20;99.90;;;;;;5102336;27;20105;-78
2023/05/19 02:29:51;;;;;;;23.25;14.48;;;7.30;99.90;;;;;;5087956;28;20050;-78
2023/05/19 02:32:17;;;;;;;20.55;14.02;;;7.20;99.90;;;;;;5087976;28;20068;-78
2023/05/19 02:34:44;;;;;;;22.48;14.85;;;7.20;99.90;;;;;;5120378;27;20044;-78
2023/05/19 02:37:14;;;;;;;25.45;15.52;;;7.30;99.90;;;;;;5085826;28;20039;-78
2023/05/19 02:39:40;;;;;;;23.33;15.57;;;7.20;99.90;;;;;;5128456;27;20051;-78
2023/05/19 02:42:06;;;;;;;22.85;15.80;;;7.20;99.90;;;;;;5092501;28;20054;-78
2023/05/19 02:44:32;;;;;;;20.70;15.13;;;7.20;99.90;;;;;;5104781;28;20040;-78
2023/05/19 02:46:58;;;;;;;27.77;18.20;;;7.30;99.90;;;;;;5081150;28;20040;-78
2023/05/19 02:49:24;;;;;;;32.10;19.25;;;7.30;99.90;;;;;;5078148;28;20031;-78
2023/05/19 02:51:49;;;;;;;28.25;19.13;;;7.30;99.90;;;;;;5089325;28;20074;-78
2023/05/19 02:54:15;;;;;;;32.33;20.27;;;7.30;99.90;;;;;;5101679;28;20036;-78
2023/05/19 02:56:41;;;;;;;36.03;22.65;;;7.30;99.90;;;;;;5088102;28;20048;-77
2023/05/19 02:59:07;;;;;;;32.38;21.48;;;7.30;99.90;;;;;;5070894;28;20103;-77
2023/05/19 03:01:36;;;;;;;32.00;22.33;;;7.30;99.90;;;;;;5069402;28;20039;-78
2023/05/19 03:04:05;;;;;;;27.23;22.55;;;7.20;99.90;;;;;;5064396;28;20110;-78
2023/05/19 03:06:31;;;;;;;34.90;24.80;;;7.20;99.90;;;;;;5086363;28;20039;-78
2023/05/19 03:08:57;;;;;;;33.53;24.05;;;7.20;99.90;;;;;;5069175;28;20048;-78
2023/05/19 03:11:23;;;;;;;34.72;23.50;;;7.20;99.90;;;;;;5104512;28;20553;-78
2023/05/19 03:13:49;;;;;;;33.05;25.65;;;7.10;99.90;;;;;;5088946;28;20119;-78
2023/05/19 03:16:15;;;;;;;38.70;26.25;;;7.00;99.90;;;;;;5085057;28;20816;-77
2023/05/19 03:18:42;;;;;;;33.35;24.70;;;7.00;99.90;;;;;;5071802;28;20149;-78
2023/05/19 03:21:07;;;;;;;36.95;25.77;;;7.10;99.90;;;;;;5087734;28;20039;-78
2023/05/19 03:23:33;;;;;;;36.75;25.65;;;7.10;99.90;;;;;;5053074;28;20092;-78
2023/05/19 03:26:00;;;;;;;43.42;26.90;;;7.10;99.90;;;;;;5100485;28;20054;-78
2023/05/19 03:28:28;;;;;;;39.40;26.60;;;7.10;99.90;;;;;;5071221;28;20046;-78
2023/05/19 03:30:54;;;;;;;39.72;26.13;;;7.10;99.90;;;;;;5087634;28;20108;-79
2023/05/19 03:33:20;;;;;;;36.85;25.27;;;7.10;99.90;;;;;;5120685;27;20510;-78
2023/05/19 03:35:45;;;;;;;37.90;25.27;;;7.10;99.90;;;;;;5063423;28;20062;-78
2023/05/19 03:38:11;;;;;;;36.70;25.00;;;7.10;99.90;;;;;;5071487;28;20046;-78
2023/05/19 03:40:37;;;;;;;37.83;25.58;;;7.10;99.90;;;;;;5067074;28;20044;-79
2023/05/19 03:43:03;;;;;;;38.55;25.70;;;7.10;99.90;;;;;;5087412;27;20048;-79
2023/05/19 03:45:29;;;;;;;36.72;24.83;;;7.00;99.90;;;;;;5089953;28;20040;-78
2023/05/19 03:47:55;;;;;;;34.58;24.67;;;7.00;99.90;;;;;;5083230;28;20103;-78
2023/05/19 03:50:26;;;;;;;36.78;24.77;;;7.00;99.90;;;;;;5087184;28;20083;-78
2023/05/19 03:52:52;;;;;;;36.72;25.50;;;7.00;99.90;;;;;;5099353;28;20068;-78
2023/05/19 03:55:19;;;;;;;38.95;27.10;;;7.00;99.90;;;;;;5087306;28;20659;-78
2023/05/19 03:57:44;;;;;;;35.40;24.85;;;7.00;99.90;;;;;;5072405;28;20078;-78
2023/05/19 04:00:11;;;;;;;37.00;24.13;;;7.00;99.90;;;;;;5070406;28;20071;-78
2023/05/19 04:02:37;;;;;;;39.05;25.17;;;7.00;99.90;;;;;;5075085;28;20047;-78
2023/05/19 04:05:06;;;;;;;30.65;23.10;;;7.00;99.90;;;;;;5084816;28;20702;-79
2023/05/19 04:07:32;;;;;;;29.85;21.73;;;7.00;99.90;;;;;;5082648;28;20043;-78
2023/05/19 04:09:58;;;;;;;39.15;24.42;;;7.10;99.90;;;;;;5114430;27;20510;-78
2023/05/19 04:12:24;;;;;;;32.55;22.63;;;7.00;99.90;;;;;;5091053;28;20070;-78
2023/05/19 04:14:49;;;;;;;32.28;22.20;;;7.10;99.90;;;;;;5101240;28;20042;-79
2023/05/19 04:17:15;;;;;;;33.30;23.08;;;7.10;99.90;;;;;;5089309;27;20078;-78
2023/05/19 04:19:41;;;;;;;30.17;21.00;;;7.10;99.90;;;;;;5098211;28;20074;-79
2023/05/19 04:22:07;;;;;;;30.67;20.50;;;7.20;99.90;;;;;;5086679;28;20070;-78
2023/05/19 04:24:32;;;;;;;32.85;21.13;;;7.20;99.90;;;;;;5118201;27;20068;-78
2023/05/19 04:27:03;;;;;;;30.65;20.65;;;7.20;99.90;;;;;;5103475;27;20055;-78
2023/05/19 04:29:29;;;;;;;31.17;20.73;;;7.30;99.90;;;;;;5100631;28;20918;-79
2023/05/19 04:31:56;;;;;;;29.17;20.58;;;7.30;99.90;;;;;;5087916;28;20062;-78
2023/05/19 04:34:21;;;;;;;26.70;19.98;;;7.30;99.90;;;;;;5071164;28;20043;-79
2023/05/19 04:36:47;;;;;;;33.85;20.60;;;7.30;99.90;;;;;;5084633;28;20046;-79
2023/05/19 04:39:14;;;;;;;29.50;19.92;;;7.40;99.90;;;;;;5086044;28;20097;-78
2023/05/19 04:41:40;;;;;;;29.13;19.40;;;7.40;99.90;;;;;;5083311;28;20039;-79
2023/05/19 04:44:07;;;;;;;29.48;18.30;;;7.50;99.90;;;;;;5084346;28;20174;-79
2023/05/19 04:46:33;;;;;;;23.20;18.38;;;7.50;99.90;;;;;;5063919;28;20145;-78
2023/05/19 04:49:00;;;;;;;23.95;17.83;;;7.60;99.90;;;;;;5085393;28;20052;-78
2023/05/19 04:51:30;;;;;;;29.88;17.80;;;7.60;99.90;;;;;;5065523;28;20040;-78
2023/05/19 04:53:58;;;;;;;26.13;17.50;;;7.70;99.90;;;;;;5085572;28;20051;-78
2023/05/19 04:56:26;;;;;;;24.88;16.42;;;7.80;99.90;;;;;;5085836;28;20035;-78
2023/05/19 04:58:52;;;;;;;28.20;18.02;;;7.80;99.90;;;;;;5084644;28;20051;-79
2023/05/19 05:01:24;;;;;;;26.38;16.80;;;7.90;99.90;;;;;;5066400;28;20565;-78
2023/05/19 05:03:54;;;;;;;23.27;15.10;;;7.90;99.90;;;;;;5066820;28;20035;-79
2023/05/19 05:06:21;;;;;;;21.90;15.80;;;8.10;99.90;;;;;;5100865;28;20136;-79
2023/05/19 05:08:48;;;;;;;21.33;14.50;;;8.10;99.90;;;;;;5052730;28;20490;-79
2023/05/19 05:11:17;;;;;;;25.20;14.90;;;8.20;99.90;;;;;;5083233;28;20490;-79
2023/05/19 05:13:43;;;;;;;21.58;14.43;;;8.30;99.90;;;;;;5071267;28;20063;-79
2023/05/19 05:16:09;;;;;;;23.92;14.52;;;8.30;99.90;;;;;;5080787;28;20051;-78
2023/05/19 05:18:37;;;;;;;21.33;14.07;;;8.40;99.90;;;;;;5067235;28;20123;-79
2023/05/19 05:21:03;;;;;;;19.70;13.98;;;8.40;99.90;;;;;;5082024;28;20048;-79
2023/05/19 05:23:30;;;;;;;18.83;13.70;;;8.60;99.90;;;;;;5086479;28;20028;-80
2023/05/19 05:25:56;;;;;;;19.60;13.30;;;8.60;99.90;;;;;;5051249;28;20044;-79
2023/05/19 05:28:21;;;;;;;16.80;12.18;;;8.70;99.90;;;;;;5066965;28;20035;-79
2023/05/19 05:30:47;;;;;;;18.00;12.73;;;8.70;99.90;;;;;;5084034;28;20510;-78
2023/05/19 05:33:14;;;;;;;18.40;12.40;;;8.80;99.90;;;;;;5082658;28;20144;-79
2023/05/19 05:35:39;;;;;;;17.10;12.38;;;8.80;99.90;;;;;;5098065;28;20043;-79
2023/05/19 05:38:05;;;;;;;18.90;11.75;;;8.90;99.90;;;;;;5099675;28;20043;-79
2023/05/19 05:40:31;;;;;;;21.65;12.10;;;8.90;99.90;;;;;;5084569;28;20104;-79
2023/05/19 05:43:00;;;;;;;17.85;11.43;;;9.00;99.90;;;;;;5082122;28;20051;-79
2023/05/19 05:45:25;;;;;;;16.70;11.32;;;9.10;99.90;;;;;;5065384;28;20039;-79
2023/05/19 05:47:52;;;;;;;17.98;12.18;;;9.20;99.90;;;;;;5050743;28;20176;-79
2023/05/19 05:50:18;;;;;;;18.20;11.38;;;9.30;99.90;;;;;;5098524;28;20035;-78
2023/05/19 05:52:46;;;;;;;20.40;11.25;;;9.40;99.90;;;;;;5069138;28;20501;-79
2023/05/19 05:55:12;;;;;;;15.32;10.93;;;9.40;99.90;;;;;;5077696;28;20048;-79
2023/05/19 05:57:40;;;;;;;16.50;10.90;;;9.50;99.90;;;;;;5067884;28;20058;-79
2023/05/19 06:00:27;;;;;;;15.00;10.40;;;9.50;99.90;;;;;;5046789;28;20048;-79
2023/05/19 06:02:53;;;;;;;14.65;10.30;;;9.60;99.90;;;;;;5119723;27;20055;-78
2023/05/19 06:05:19;;;;;;;15.75;10.05;;;9.70;99.90;;;;;;5097842;28;20031;-79
2023/05/19 06:07:45;;;;;;;17.50;10.82;;;9.80;99.90;;;;;;5097632;28;20059;-78
2023/05/19 06:10:11;;;;;;;13.40;9.13;;;9.80;99.90;;;;;;5052625;28;20734;-79
2023/05/19 06:12:39;;;;;;;15.82;9.32;;;9.90;99.90;;;;;;5084376;28;20126;-79
2023/05/19 06:15:06;;;;;;;13.18;8.45;;;10.00;99.90;;;;;;5096684;28;20050;-79
2023/05/19 06:17:34;;;;;;;11.75;7.95;;;10.10;99.90;;;;;;5081800;28;20552;-78
2023/05/19 06:20:01;;;;;;;12.90;7.68;;;10.20;99.90;;;;;;5080557;28;20059;-80
2023/05/19 06:22:27;;;;;;;12.55;7.68;;;10.30;99.90;;;;;;5049508;28;20516;-80
2023/05/19 06:24:53;;;;;;;12.50;7.93;;;10.40;99.90;;;;;;5083433;28;20036;-80
2023/05/19 06:27:19;;;;;;;12.80;7.68;;;10.50;99.90;;;;;;5069167;28;20046;-79
2023/05/19 06:29:45;;;;;;;14.20;7.72;;;10.60;99.90;;;;;;5082678;28;20504;-80
2023/05/19 06:32:11;;;;;;;11.45;7.30;;;10.70;99.90;;;;;;5066956;28;20052;-80
2023/05/19 06:34:39;;;;;;;10.73;6.93;;;10.70;99.90;;;;;;5087649;28;20043;-80
2023/05/19 06:37:07;;;;;;;15.25;7.35;;;10.80;99.90;;;;;;5055510;28;20044;-79
2023/05/19 06:39:33;;;;;;;10.93;7.35;;;11.00;99.90;;;;;;5104588;28;20032;-79
2023/05/19 06:41:59;;;;;;;12.63;6.78;;;11.10;99.90;;;;;;5067873;28;20042;-80
2023/05/19 06:44:25;;;;;;;10.00;6.93;;;11.20;99.90;;;;;;5055696;28;20043;-80
2023/05/19 06:46:51;;;;;;;12.88;6.93;;;11.30;99.90;;;;;;5065065;28;20047;-79
2023/05/19 06:49:17;;;;;;;14.70;6.70;;;11.40;99.90;;;;;;5103673;28;20039;-80
2023/05/19 06:51:43;;;;;;;11.30;6.93;;;11.50;99.90;;;;;;5086903;28;20047;-81
2023/05/19 06:54:11;;;;;;;12.00;5.68;;;11.60;99.90;;;;;;5051231;28;20054;-81
2023/05/19 06:56:37;;;;;;;10.85;6.22;;;11.70;99.90;;;;;;5090116;28;20474;-77
2023/05/19 06:59:09;;;;;;;8.98;5.50;;;11.80;99.90;;;;;;5088030;28;20036;-77
2023/05/19 07:01:35;;;;;;;11.80;5.82;;;11.90;99.90;;;;;;5098599;28;20505;-77
2023/05/19 07:04:01;;;;;;;10.48;4.47;;;12.00;99.90;;;;;;5103229;27;20070;-77
2023/05/19 07:06:27;;;;;;;10.68;5.03;;;12.10;99.90;;;;;;5103195;28;20067;-76
2023/05/19 07:08:53;;;;;;;12.15;5.30;;;12.30;99.90;;;;;;5106835;27;20459;-77
2023/05/19 07:11:18;;;;;;;9.13;4.10;;;12.40;99.90;;;;;;5086357;28;20887;-76
2023/05/19 07:13:44;;;;;;;9.57;4.32;;;12.60;99.90;;;;;;5088698;28;20461;-77
2023/05/19 07:16:10;;;;;;;8.55;3.72;;;12.70;99.90;;;;;;5087903;28;20147;-77
2023/05/19 07:18:36;;;;;;;9.63;3.92;;;12.80;99.90;;;;;;5104449;28;20051;-81
2023/05/19 07:21:01;;;;;;;11.48;3.63;;;12.90;99.90;;;;;;5071848;28;20502;-81
2023/05/19 07:23:27;;;;;;;8.65;3.72;;;13.00;99.90;;;;;;5087140;28;20127;-82
2023/05/19 07:25:55;;;;;;;9.23;3.58;;;13.00;99.90;;;;;;5089097;28;20047;-81
2023/05/19 07:28:21;;;;;;;9.85;3.90;;;13.10;99.90;;;;;;5067649;28;20150;-81
2023/05/19 07:30:47;;;;;;;9.27;3.38;;;13.20;99.90;;;;;;5051234;28;20162;-81
2023/05/19 07:33:12;;;;;;;8.55;3.00;;;13.30;99.90;;;;;;5088751;28;20047;-81
2023/05/19 07:35:38;;;;;;;8.75;3.85;;;13.40;99.90;;;;;;5070873;28;20039;-75
2023/05/19 07:38:06;;;;;;;8.57;3.38;;;13.50;99.90;;;;;;5105796;28;20128;-75
2023/05/19 07:40:31;;;;;;;9.90;3.58;;;13.60;99.90;;;;;;5052933;28;20433;-75
2023/05/19 07:42:57;;;;;;;7.57;2.97;;;13.70;99.90;;;;;;5086425;28;20050;-75
2023/05/19 07:45:23;;;;;;;8.45;2.92;;;13.80;99.60;;;;;;5055120;28;20494;-76
2023/05/19 07:47:53;;;;;;;10.38;3.58;;;14.00;97.90;;;;;;5120902;27;20043;-76
2023/05/19 07:50:19;;;;;;;9.55;3.60;;;14.00;96.50;;;;;;5112442;27;20379;-76
2023/05/19 07:52:45;;;;;;;9.45;3.83;;;14.10;96.60;;;;;;5069975;28;20040;-75
2023/05/19 07:55:11;;;;;;;8.88;3.53;;;14.20;96.30;;;;;;5081403;27;20044;-75
2023/05/19 07:57:36;;;;;;;9.43;3.17;;;14.20;95.00;;;;;;5117014;27;20055;-76
2023/05/19 08:00:06;;;;;;;9.43;3.35;;;14.30;93.90;;;;;;5071072;28;20398;-75
2023/05/19 08:02:32;;;;;;;7.65;3.25;;;14.30;94.90;;;;;;5070185;27;20130;-75
2023/05/19 08:04:58;;;;;;;7.72;3.42;;;14.40;94.70;;;;;;5080148;28;20056;-75
2023/05/19 08:07:24;;;;;;;10.48;3.30;;;14.50;94.50;;;;;;5086452;28;20515;-76
2023/05/19 08:09:50;;;;;;;8.30;2.83;;;14.70;93.00;;;;;;5062634;28;20146;-75
2023/05/19 08:12:16;;;;;;;8.95;3.20;;;14.70;93.40;;;;;;5085180;28;20075;-75
2023/05/19 08:14:41;;;;;;;8.02;2.92;;;14.80;92.40;;;;;;5077244;27;20082;-75
2023/05/19 08:17:07;;;;;;;8.38;3.08;;;14.90;91.80;;;;;;5077627;28;20135;-75
2023/05/19 08:19:33;;;;;;;8.75;3.00;;;14.90;90.90;;;;;;5091769;27;20032;-75
2023/05/19 08:22:00;;;;;;;10.48;3.65;;;15.00;90.80;;;;;;5063598;28;20051;-75
2023/05/19 08:24:28;;;;;;;7.43;3.00;;;15.10;87.10;;;;;;5081027;28;20126;-75
2023/05/19 08:26:54;;;;;;;7.55;2.97;;;15.20;85.10;;;;;;5136311;27;20101;-75
2023/05/19 08:29:23;;;;;;;9.25;3.20;;;15.20;85.00;;;;;;5082591;28;20040;-75
2023/05/19 08:31:49;;;;;;;8.32;3.53;;;15.30;82.00;;;;;;5085084;28;20127;-76
2023/05/19 08:34:15;;;;;;;8.82;3.28;;;15.30;81.60;;;;;;5049168;28;20135;-76
2023/05/19 08:36:40;;;;;;;7.57;2.72;;;15.30;80.80;;;;;;5063971;28;20458;-75
2023/05/19 08:39:07;;;;;;;8.00;3.65;;;15.30;81.60;;;;;;5069118;28;20040;-74
2023/05/19 08:41:32;;;;;;;6.63;3.10;;;15.40;82.30;;;;;;5099949;28;20099;-75
2023/05/19 08:43:58;;;;;;;7.65;3.17;;;15.50;82.40;;;;;;5083048;28;20493;-75
2023/05/19 08:46:24;;;;;;;10.73;3.53;;;15.50;81.00;;;;;;5114139;27;20405;-75
2023/05/19 08:48:54;;;;;;;8.73;3.58;;;15.60;81.70;;;;;;5105615;28;20114;-74
2023/05/19 08:51:32;;;;;;;8.90;2.70;;;15.80;79.80;;;;;;5097734;28;20038;-74
2023/05/19 08:54:07;;;;;;;7.72;3.03;;;15.90;79.10;;;;;;5082267;28;20120;-74
2023/05/19 08:56:33;;;;;;;6.07;2.97;;;16.00;77.40;;;;;;5103136;28;20043;-74
2023/05/19 08:59:01;;;;;;;7.45;3.33;;;16.00;77.70;;;;;;5100076;28;20114;-74
2023/05/19 09:01:29;;;;;;;6.35;2.78;;;16.00;75.70;;;;;;5098248;28;20084;-81
2023/05/19 09:03:55;;;;;;;8.68;2.90;;;16.00;73.80;;;;;;5083581;28;20096;-79
2023/05/19 09:06:20;;;;;;;6.32;3.00;;;16.00;72.50;;;;;;5084841;28;20051;-79
2023/05/19 09:08:47;;;;;;;7.13;3.03;;;16.00;74.90;;;;;;5083844;28;20035;-81
2023/05/19 09:11:13;;;;;;;9.18;3.08;;;16.10;74.80;;;;;;5081599;28;20058;-80
2023/05/19 09:13:39;;;;;;;6.95;2.70;;;16.10;72.00;;;;;;5114703;27;20101;-78
2023/05/19 09:16:06;;;;;;;9.85;3.00;;;16.10;74.70;;;;;;5114688;27;20050;-78
2023/05/19 09:18:32;;;;;;;6.95;2.83;;;16.10;74.90;;;;;;5117531;27;20031;-79
2023/05/19 09:21:01;;;;;;;8.27;3.05;;;16.20;72.50;;;;;;5086213;28;20108;-79
2023/05/19 09:23:31;;;;;;;8.48;3.10;;;16.20;71.80;;;;;;5068193;28;20043;-78
2023/05/19 09:26:06;;;;;;;9.05;3.42;;;16.20;72.80;;;;;;5078777;28;20054;-79
2023/05/19 09:28:34;;;;;;;7.20;2.83;;;16.30;72.30;;;;;;5095849;28;20050;-78
2023/05/19 09:31:05;;;;;;;7.97;2.97;;;16.30;71.90;;;;;;5098385;28;20051;-79
2023/05/19 09:33:36;;;;;;;7.47;2.92;;;16.40;70.50;;;;;;5124020;27;20048;-78
2023/05/19 09:36:04;;;;;;;6.43;2.47;;;16.40;71.20;;;;;;5051098;28;20127;-80
2023/05/19 09:38:31;;;;;;;7.65;3.03;;;16.30;70.20;;;;;;5082886;28;20035;-79
2023/05/19 09:40:58;;;;;;;7.07;2.70;;;16.40;71.30;;;;;;5081365;28;20493;-77
2023/05/19 09:43:28;;;;;;;9.40;3.10;;;16.50;71.60;;;;;;5099228;28;20035;-79
2023/05/19 09:46:00;;;;;;;7.68;2.90;;;16.50;71.70;;;;;;5065267;28;20047;-79
2023/05/19 09:48:29;;;;;;;7.32;2.90;;;16.60;71.50;;;;;;5078656;28;20047;-79
2023/05/19 09:50:58;;;;;;;9.63;2.85;;;16.70;68.90;;;;;;5097277;28;20184;-78
2023/05/19 09:53:24;;;;;;;6.18;2.70;;;16.80;69.60;;;;;;5086489;28;20081;-74
2023/05/19 09:56:00;;;;;;;6.63;2.60;;;16.90;69.60;;;;;;5081949;28;20050;-74
2023/05/19 09:58:36;;;;;;;7.75;2.83;;;17.10;68.20;;;;;;5115129;27;20050;-74
2023/05/19 10:01:03;;;;;;;7.15;2.63;;;17.20;68.20;;;;;;5097117;28;20043;-74
2023/05/19 10:03:31;;;;;;;10.48;2.92;;;17.30;68.00;;;;;;5079674;28;20174;-74
2023/05/19 10:06:03;;;;;;;7.95;2.80;;;17.40;66.70;;;;;;5084636;28;20051;-75
2023/05/19 10:08:29;;;;;;;7.78;3.00;;;17.40;66.90;;;;;;5096512;28;20061;-73
2023/05/19 10:10:56;;;;;;;6.80;2.60;;;17.50;65.60;;;;;;5075376;28;20056;-73
2023/05/19 10:13:23;;;;;;;7.35;2.70;;;17.50;67.00;;;;;;5111553;27;20129;-73
2023/05/19 10:15:51;;;;;;;7.00;2.85;;;17.60;66.30;;;;;;5096012;28;20044;-74
2023/05/19 10:18:17;;;;;;;9.77;2.95;;;17.70;67.20;;;;;;5093120;28;20119;-73
2023/05/19 10:20:43;;;;;;;10.80;3.20;;;17.80;65.40;;;;;;5106754;27;20036;-74
2023/05/19 10:23:09;;;;;;;7.40;2.78;;;17.70;65.00;;;;;;5068109;28;20610;-74
2023/05/19 10:25:36;;;;;;;9.45;2.97;;;17.70;66.60;;;;;;5082225;28;20051;-74
2023/05/19 10:28:07;;;;;;;7.43;2.53;;;17.80;66.60;;;;;;5092520;28;20043;-72
2023/05/19 10:30:40;;;;;;;5.30;2.80;;;17.80;66.30;;;;;;5098579;28;20095;-74
2023/05/19 10:33:10;;;;;;;7.85;3.50;;;17.80;65.00;;;;;;5129201;27;20048;-76
2023/05/19 10:36:07;;;;;;;7.60;2.58;;;17.80;65.40;;;;;;5111943;27;20100;-74
2023/05/19 10:38:55;;;;;;;8.05;2.83;;;17.80;65.80;;;;;;5071127;28;20032;-74
2023/05/19 10:41:39;;;;;;;7.82;3.03;;;17.80;66.20;;;;;;5073059;28;20115;-74
2023/05/19 10:44:27;;;;;;;8.02;2.97;;;17.90;65.50;;;;;;5094178;28;20049;-74
2023/05/19 10:46:53;;;;;;;8.13;3.50;;;18.00;65.30;;;;;;5118874;27;20495;-73
2023/05/19 10:49:21;;;;;;;8.32;2.65;;;18.00;64.90;;;;;;5073833;28;20089;-72
2023/05/19 10:51:47;;;;;;;6.35;2.72;;;18.10;65.60;;;;;;5075809;28;20127;-74
2023/05/19 10:54:15;;;;;;;8.60;3.17;;;18.30;63.80;;;;;;5050053;28;20626;-72
2023/05/19 10:56:45;;;;;;;6.93;2.88;;;18.40;63.00;;;;;;5102504;28;20039;-81
2023/05/19 10:59:31;;;;;;;7.45;2.92;;;18.40;62.80;;;;;;5123751;27;20451;-79
2023/05/19 11:02:03;;;;;;;6.50;2.88;;;18.50;64.60;;;;;;5095134;28;20056;-79
2023/05/19 11:05:08;;;;;;;7.82;2.60;;;18.60;64.70;;;;;;5110924;27;20465;-78
2023/05/19 11:07:34;;;;;;;6.75;2.85;;;18.70;64.10;;;;;;5064708;28;20083;-77
2023/05/19 11:10:05;;;;;;;6.22;2.38;;;18.70;62.00;;;;;;5086874;28;20078;-77
2023/05/19 11:12:44;;;;;;;7.30;2.78;;;18.80;63.80;;;;;;5130549;27;20100;-77
2023/05/19 11:15:13;;;;;;;10.18;2.80;;;18.90;65.40;;;;;;5091918;28;20048;-78
2023/05/19 11:17:43;;;;;;;9.07;2.85;;;19.00;63.00;;;;;;5108391;27;20047;-77
2023/05/19 11:20:26;;;;;;;9.00;2.60;;;18.90;61.40;;;;;;5088795;28;20047;-76
2023/05/19 11:23:17;;;;;;;7.72;2.55;;;18.90;63.70;;;;;;5132683;27;20667;-77
2023/05/19 11:25:48;;;;;;;8.38;2.40;;;18.90;62.00;;;;;;5116945;27;20051;-76
2023/05/19 11:28:19;;;;;;;8.27;2.97;;;18.90;59.70;;;;;;5092551;28;20129;-77
2023/05/19 11:30:50;;;;;;;5.93;2.35;;;18.80;59.50;;;;;;5080966;28;20044;-75
2023/05/19 11:33:20;;;;;;;5.60;2.42;;;18.70;60.50;;;;;;5114763;27;20063;-76
2023/05/19 11:35:48;;;;;;;6.68;2.80;;;18.70;61.40;;;;;;5098811;27;20047;-75
2023/05/19 11:38:15;;;;;;;8.75;3.17;;;18.70;61.50;;;;;;5139128;27;20051;-74
2023/05/19 11:40:42;;;;;;;9.30;3.17;;;18.80;62.60;;;;;;5114820;27;20035;-75
2023/05/19 11:43:08;;;;;;;7.88;3.05;;;18.90;62.70;;;;;;5072553;28;20556;-75
2023/05/19 11:45:34;;;;;;;8.98;3.15;;;19.00;63.00;;;;;;5067000;28;20043;-76
2023/05/19 11:48:01;;;;;;;7.47;2.75;;;19.10;63.30;;;;;;5123146;27;20044;-75
2023/05/19 11:50:28;;;;;;;10.23;2.85;;;19.10;60.50;;;;;;5114194;27;20059;-75
2023/05/19 11:52:55;;;;;;;5.45;2.65;;;19.00;62.10;;;;;;5065317;28;20051;-75
2023/05/19 11:55:21;;;;;;;8.90;2.90;;;19.00;61.50;;;;;;5101491;28;20668;-75
2023/05/19 11:57:57;;;;;;;8.27;3.05;;;19.00;62.00;;;;;;5083808;28;20130;-73
2023/05/19 12:00:26;;;;;;;18.77;4.00;;;19.00;61.90;;;;;;5116537;27;20040;-73
2023/05/19 12:02:52;;;;;;;7.85;2.80;;;19.00;61.60;;;;;;5098077;28;20755;-73
2023/05/19 12:05:25;;;;;;;8.00;2.90;;;19.00;61.60;;;;;;5120471;27;20097;-73
2023/05/19 12:07:52;;;;;;;10.73;2.97;;;19.10;61.30;;;;;;5119548;27;20562;-73
2023/05/19 12:10:29;;;;;;;7.85;2.97;;;19.00;61.90;;;;;;5103890;27;20116;-72
2023/05/19 12:12:57;;;;;;;9.30;2.78;;;18.90;61.60;;;;;;5085149;28;20055;-73
2023/05/19 12:15:24;;;;;;;7.55;2.85;;;18.90;63.50;;;;;;5091313;28;20078;-73
2023/05/19 12:17:50;;;;;;;6.72;2.63;;;19.00;62.00;;;;;;5130351;27;20123;-73
2023/05/19 12:20:19;;;;;;;5.55;2.80;;;19.00;62.20;;;;;;5103562;28;20058;-73
2023/05/19 12:22:46;;;;;;;7.63;2.80;;;19.00;62.60;;;;;;5076379;28;20040;-73
2023/05/19 12:25:14;;;;;;;6.68;3.00;;;19.10;62.50;;;;;;5093519;28;20047;-73
2023/05/19 12:27:42;;;;;;;7.97;3.00;;;19.30;61.80;;;;;;5088352;28;20116;-74
2023/05/19 12:30:09;;;;;;;7.03;3.00;;;19.30;61.90;;;;;;5096755;27;20165;-73
2023/05/19 12:32:35;;;;;;;7.82;3.00;;;19.40;59.60;;;;;;5106264;27;20043;-73
2023/05/19 12:35:04;;;;;;;6.80;2.90;;;19.40;61.20;;;;;;5090737;28;20044;-74
2023/05/19 12:37:32;;;;;;;6.63;2.60;;;19.40;60.20;;;;;;5068390;28;20117;-74
2023/05/19 12:39:58;;;;;;;6.85;2.72;;;19.40;60.40;;;;;;5095260;28;20055;-73
2023/05/19 12:42:30;;;;;;;8.20;2.72;;;19.30;59.60;;;;;;5102345;27;20118;-73
2023/05/19 12:45:01;;;;;;;5.88;2.95;;;19.30;59.50;;;;;;5113932;27;20402;-74
2023/05/19 12:47:34;;;;;;;6.30;2.42;;;19.30;58.50;;;;;;5119302;27;20081;-72
2023/05/19 12:50:07;;;;;;;9.43;2.60;;;19.10;59.30;;;;;;5100129;27;20376;-72